sensor_id;sensor_type;location;lat;lon;timestamp;temperature;humidity
8095;DHT22;4090;49.270;8.696;2022-09-16T00:00:20;17.70;99.90
8095;DHT22;4090;49.270;8.696;2022-09-16T00:03:02;17.70;99.90
8095;DHT22;4090;49.270;8.696;2022-09-16T00:05:46;17.70;99.90
8095;DHT22;4090;49.270;8.696;2022-09-16T00:08:28;17.70;99.90
8095;DHT22;4090;49.270;8.696;2022-09-16T00:11:11;17.70;99.90
8095;DHT22;4090;49.270;8.696;2022-09-16T00:13:53;17.70;99.90
8095;DHT22;4090;49.270;8.696;2022-09-16T00:16:37;17.70;99.90
8095;DHT22;4090;49.270;8.696;2022-09-16T00:19:20;17.70;99.90
8095;DHT22;4090;49.270;8.696;2022-09-16T00:22:02;17.60;99.90
8095;DHT22;4090;49.270;8.696;2022-09-16T00:24:47;17.60;99.90
8095;DHT22;4090;49.270;8.696;2022-09-16T00:27:29;17.60;99.90
8095;DHT22;4090;49.270;8.696;2022-09-16T00:30:11;17.60;99.90
8095;DHT22;4090;49.270;8.696;2022-09-16T00:32:54;17.60;99.90
8095;DHT22;4090;49.270;8.696;2022-09-16T00:35:36;17.60;99.90
8095;DHT22;4090;49.270;8.696;2022-09-16T00:38:18;17.60;99.90
8095;DHT22;4090;49.270;8.696;2022-09-16T00:41:00;17.60;99.90
8095;DHT22;4090;49.270;8.696;2022-09-16T00:43:48;17.60;99.90
8095;DHT22;4090;49.270;8.696;2022-09-16T00:46:35;17.60;99.90
8095;DHT22;4090;49.270;8.696;2022-09-16T00:49:25;17.60;99.90
8095;DHT22;4090;49.270;8.696;2022-09-16T00:52:08;17.60;99.90
8095;DHT22;4090;49.270;8.696;2022-09-16T00:54:50;17.60;99.90
8095;DHT22;4090;49.270;8.696;2022-09-16T00:57:33;17.60;99.90
8095;DHT22;4090;49.270;8.696;2022-09-16T01:00:15;17.60;99.90
8095;DHT22;4090;49.270;8.696;2022-09-16T01:02:57;17.50;99.90
8095;DHT22;4090;49.270;8.696;2022-09-16T01:05:40;17.50;99.90
8095;DHT22;4090;49.270;8.696;2022-09-16T01:08:23;17.50;99.90
8095;DHT22;4090;49.270;8.696;2022-09-16T01:11:05;17.50;99.90
8095;DHT22;4090;49.270;8.696;2022-09-16T01:13:47;17.50;99.90
8095;DHT22;4090;49.270;8.696;2022-09-16T01:16:33;17.50;99.90
8095;DHT22;4090;49.270;8.696;2022-09-16T01:19:31;17.50;99.90
8095;DHT22;4090;49.270;8.696;2022-09-16T01:22:31;17.50;99.90
8095;DHT22;4090;49.270;8.696;2022-09-16T01:25:29;17.50;99.90
8095;DHT22;4090;49.270;8.696;2022-09-16T01:28:27;17.50;99.90
8095;DHT22;4090;49.270;8.696;2022-09-16T01:31:21;17.50;99.90
8095;DHT22;4090;49.270;8.696;2022-09-16T01:34:13;17.50;99.90
8095;DHT22;4090;49.270;8.696;2022-09-16T01:37:02;17.50;99.90
8095;DHT22;4090;49.270;8.696;2022-09-16T01:39:51;17.50;99.90
8095;DHT22;4090;49.270;8.696;2022-09-16T01:42:40;17.50;99.90
8095;DHT22;4090;49.270;8.696;2022-09-16T01:45:32;17.50;99.90
8095;DHT22;4090;49.270;8.696;2022-09-16T01:52:24;17.40;99.90
8095;DHT22;4090;49.270;8.696;2022-09-16T01:55:12;17.40;99.90
8095;DHT22;4090;49.270;8.696;2022-09-16T01:57:58;17.30;99.90
8095;DHT22;4090;49.270;8.696;2022-09-16T02:00:43;17.30;99.90
8095;DHT22;4090;49.270;8.696;2022-09-16T02:03:29;17.30;99.90
8095;DHT22;4090;49.270;8.696;2022-09-16T02:06:16;17.30;99.90
8095;DHT22;4090;49.270;8.696;2022-09-16T02:09:07;17.30;99.90
8095;DHT22;4090;49.270;8.696;2022-09-16T02:11:52;17.30;99.90
8095;DHT22;4090;49.270;8.696;2022-09-16T02:14:37;17.30;99.90
8095;DHT22;4090;49.270;8.696;2022-09-16T02:17:22;17.20;99.90
8095;DHT22;4090;49.270;8.696;2022-09-16T02:20:08;17.20;99.90
8095;DHT22;4090;49.270;8.696;2022-09-16T02:22:55;17.20;99.90
8095;DHT22;4090;49.270;8.696;2022-09-16T02:25:41;17.10;99.90
8095;DHT22;4090;49.270;8.696;2022-09-16T02:28:30;17.10;99.90
8095;DHT22;4090;49.270;8.696;2022-09-16T02:31:15;17.20;99.90
8095;DHT22;4090;49.270;8.696;2022-09-16T02:34:03;17.20;99.90
8095;DHT22;4090;49.270;8.696;2022-09-16T02:36:53;17.20;99.90
8095;DHT22;4090;49.270;8.696;2022-09-16T02:39:38;17.20;99.90
8095;DHT22;4090;49.270;8.696;2022-09-16T02:42:22;17.10;99.90
8095;DHT22;4090;49.270;8.696;2022-09-16T02:45:05;17.10;99.90
8095;DHT22;4090;49.270;8.696;2022-09-16T02:47:53;17.10;99.90
8095;DHT22;4090;49.270;8.696;2022-09-16T02:50:42;17.10;99.90
8095;DHT22;4090;49.270;8.696;2022-09-16T02:53:33;17.20;99.90
8095;DHT22;4090;49.270;8.696;2022-09-16T02:56:21;17.10;99.90
8095;DHT22;4090;49.270;8.696;2022-09-16T02:59:10;17.10;99.90
8095;DHT22;4090;49.270;8.696;2022-09-16T03:01:52;17.10;99.90
8095;DHT22;4090;49.270;8.696;2022-09-16T03:04:34;17.10;99.90
8095;DHT22;4090;49.270;8.696;2022-09-16T03:07:17;17.10;99.90
8095;DHT22;4090;49.270;8.696;2022-09-16T03:09:59;17.10;99.90
8095;DHT22;4090;49.270;8.696;2022-09-16T03:12:49;17.10;99.90
8095;DHT22;4090;49.270;8.696;2022-09-16T03:15:54;17.10;99.90
8095;DHT22;4090;49.270;8.696;2022-09-16T03:18:55;17.10;99.90
8095;DHT22;4090;49.270;8.696;2022-09-16T03:21:45;17.10;99.90
8095;DHT22;4090;49.270;8.696;2022-09-16T03:24:35;17.10;99.90
8095;DHT22;4090;49.270;8.696;2022-09-16T03:27:24;17.10;99.90
8095;DHT22;4090;49.270;8.696;2022-09-16T03:30:10;17.10;99.90
8095;DHT22;4090;49.270;8.696;2022-09-16T03:32:56;17.10;99.90
8095;DHT22;4090;49.270;8.696;2022-09-16T03:35:42;17.10;99.90
8095;DHT22;4090;49.270;8.696;2022-09-16T03:38:26;17.10;99.90
8095;DHT22;4090;49.270;8.696;2022-09-16T03:41:09;17.10;99.90
8095;DHT22;4090;49.270;8.696;2022-09-16T03:43:52;17.10;99.90
8095;DHT22;4090;49.270;8.696;2022-09-16T03:46:34;17.10;99.90
8095;DHT22;4090;49.270;8.696;2022-09-16T03:49:17;17.10;99.90
8095;DHT22;4090;49.270;8.696;2022-09-16T03:51:59;17.10;99.90
8095;DHT22;4090;49.270;8.696;2022-09-16T03:54:41;17.10;99.90
8095;DHT22;4090;49.270;8.696;2022-09-16T03:57:23;17.10;99.90
8095;DHT22;4090;49.270;8.696;2022-09-16T04:00:08;17.00;99.90
8095;DHT22;4090;49.270;8.696;2022-09-16T04:02:53;17.10;99.90
8095;DHT22;4090;49.270;8.696;2022-09-16T04:05:37;17.10;99.90
8095;DHT22;4090;49.270;8.696;2022-09-16T04:08:19;17.10;99.90
8095;DHT22;4090;49.270;8.696;2022-09-16T04:11:03;17.10;99.90
8095;DHT22;4090;49.270;8.696;2022-09-16T04:13:45;17.10;99.90
8095;DHT22;4090;49.270;8.696;2022-09-16T04:16:26;17.10;99.90
8095;DHT22;4090;49.270;8.696;2022-09-16T04:19:10;17.10;99.90
8095;DHT22;4090;49.270;8.696;2022-09-16T04:21:54;17.10;99.90
8095;DHT22;4090;49.270;8.696;2022-09-16T04:24:35;17.10;99.90
8095;DHT22;4090;49.270;8.696;2022-09-16T04:27:17;17.10;99.90
8095;DHT22;4090;49.270;8.696;2022-09-16T04:29:59;17.10;99.90
8095;DHT22;4090;49.270;8.696;2022-09-16T04:32:41;17.10;99.90
8095;DHT22;4090;49.270;8.696;2022-09-16T04:35:23;17.10;99.90
8095;DHT22;4090;49.270;8.696;2022-09-16T04:38:07;17.10;99.90
8095;DHT22;4090;49.270;8.696;2022-09-16T04:40:48;17.10;99.90
8095;DHT22;4090;49.270;8.696;2022-09-16T04:43:31;17.00;99.90
8095;DHT22;4090;49.270;8.696;2022-09-16T04:46:13;17.00;99.90
8095;DHT22;4090;49.270;8.696;2022-09-16T04:48:55;17.00;99.90
8095;DHT22;4090;49.270;8.696;2022-09-16T04:51:37;17.00;99.90
8095;DHT22;4090;49.270;8.696;2022-09-16T04:54:20;17.00;99.90
8095;DHT22;4090;49.270;8.696;2022-09-16T04:57:03;17.00;99.90
8095;DHT22;4090;49.270;8.696;2022-09-16T04:59:44;17.00;99.90
8095;DHT22;4090;49.270;8.696;2022-09-16T05:02:26;17.00;99.90
8095;DHT22;4090;49.270;8.696;2022-09-16T05:05:09;17.00;99.90
8095;DHT22;4090;49.270;8.696;2022-09-16T05:07:51;16.90;99.90
8095;DHT22;4090;49.270;8.696;2022-09-16T05:10:34;16.90;99.90
8095;DHT22;4090;49.270;8.696;2022-09-16T05:13:16;16.90;99.90
8095;DHT22;4090;49.270;8.696;2022-09-16T05:16:01;16.90;99.90
8095;DHT22;4090;49.270;8.696;2022-09-16T05:18:44;16.90;99.90
8095;DHT22;4090;49.270;8.696;2022-09-16T05:21:27;16.90;99.90
8095;DHT22;4090;49.270;8.696;2022-09-16T05:24:11;16.90;99.90
8095;DHT22;4090;49.270;8.696;2022-09-16T05:26:55;16.90;99.90
8095;DHT22;4090;49.270;8.696;2022-09-16T05:29:37;16.90;99.90
8095;DHT22;4090;49.270;8.696;2022-09-16T05:32:19;16.90;99.90
8095;DHT22;4090;49.270;8.696;2022-09-16T05:35:01;16.90;99.90
8095;DHT22;4090;49.270;8.696;2022-09-16T05:37:43;16.90;99.90
8095;DHT22;4090;49.270;8.696;2022-09-16T05:40:25;16.90;99.90
8095;DHT22;4090;49.270;8.696;2022-09-16T05:43:09;16.90;99.90
8095;DHT22;4090;49.270;8.696;2022-09-16T05:45:51;16.90;99.90
8095;DHT22;4090;49.270;8.696;2022-09-16T05:48:34;17.00;99.90
8095;DHT22;4090;49.270;8.696;2022-09-16T05:51:17;17.00;99.90
8095;DHT22;4090;49.270;8.696;2022-09-16T05:53:59;17.00;99.90
8095;DHT22;4090;49.270;8.696;2022-09-16T05:56:41;17.00;99.90
8095;DHT22;4090;49.270;8.696;2022-09-16T05:59:24;16.90;99.90
8095;DHT22;4090;49.270;8.696;2022-09-16T06:02:07;16.90;99.90
8095;DHT22;4090;49.270;8.696;2022-09-16T06:04:51;16.90;99.90
8095;DHT22;4090;49.270;8.696;2022-09-16T06:07:33;16.90;99.90
8095;DHT22;4090;49.270;8.696;2022-09-16T06:10:15;16.90;99.90
8095;DHT22;4090;49.270;8.696;2022-09-16T06:12:58;16.90;99.90
8095;DHT22;4090;49.270;8.696;2022-09-16T06:15:47;16.90;99.90
8095;DHT22;4090;49.270;8.696;2022-09-16T06:18:30;16.90;99.90
8095;DHT22;4090;49.270;8.696;2022-09-16T06:21:11;16.90;99.90
8095;DHT22;4090;49.270;8.696;2022-09-16T06:23:54;16.90;99.90
8095;DHT22;4090;49.270;8.696;2022-09-16T06:26:37;16.90;99.90
8095;DHT22;4090;49.270;8.696;2022-09-16T06:29:19;16.90;99.90
8095;DHT22;4090;49.270;8.696;2022-09-16T06:32:03;16.90;99.90
8095;DHT22;4090;49.270;8.696;2022-09-16T06:34:45;16.90;99.90
8095;DHT22;4090;49.270;8.696;2022-09-16T06:37:27;16.90;99.90
8095;DHT22;4090;49.270;8.696;2022-09-16T06:40:09;16.80;99.90
8095;DHT22;4090;49.270;8.696;2022-09-16T06:42:52;16.80;99.90
8095;DHT22;4090;49.270;8.696;2022-09-16T06:45:34;16.80;99.90
8095;DHT22;4090;49.270;8.696;2022-09-16T06:48:17;16.80;99.90
8095;DHT22;4090;49.270;8.696;2022-09-16T06:50:59;16.90;99.90
8095;DHT22;4090;49.270;8.696;2022-09-16T06:53:42;16.80;99.90
8095;DHT22;4090;49.270;8.696;2022-09-16T06:56:24;16.80;99.90
8095;DHT22;4090;49.270;8.696;2022-09-16T06:59:07;16.80;99.90
8095;DHT22;4090;49.270;8.696;2022-09-16T07:01:49;16.80;99.90
8095;DHT22;4090;49.270;8.696;2022-09-16T07:04:33;16.80;99.90
8095;DHT22;4090;49.270;8.696;2022-09-16T07:07:15;16.80;99.90
8095;DHT22;4090;49.270;8.696;2022-09-16T07:09:57;16.80;99.90
8095;DHT22;4090;49.270;8.696;2022-09-16T07:12:39;16.80;99.90
8095;DHT22;4090;49.270;8.696;2022-09-16T07:15:20;16.80;99.90
8095;DHT22;4090;49.270;8.696;2022-09-16T07:18:02;16.80;99.90
8095;DHT22;4090;49.270;8.696;2022-09-16T07:20:46;16.80;99.90
8095;DHT22;4090;49.270;8.696;2022-09-16T07:23:28;16.80;99.90
8095;DHT22;4090;49.270;8.696;2022-09-16T07:26:12;16.80;99.90
8095;DHT22;4090;49.270;8.696;2022-09-16T07:28:57;16.80;99.90
8095;DHT22;4090;49.270;8.696;2022-09-16T07:31:39;16.80;99.90
8095;DHT22;4090;49.270;8.696;2022-09-16T07:34:20;16.80;99.90
8095;DHT22;4090;49.270;8.696;2022-09-16T07:37:04;16.80;99.90
8095;DHT22;4090;49.270;8.696;2022-09-16T07:39:45;16.80;99.90
8095;DHT22;4090;49.270;8.696;2022-09-16T07:42:28;16.80;99.90
8095;DHT22;4090;49.270;8.696;2022-09-16T07:45:10;16.80;99.90
8095;DHT22;4090;49.270;8.696;2022-09-16T07:47:52;16.80;99.90
8095;DHT22;4090;49.270;8.696;2022-09-16T07:50:33;16.80;99.90
8095;DHT22;4090;49.270;8.696;2022-09-16T07:53:17;16.80;99.90
8095;DHT22;4090;49.270;8.696;2022-09-16T07:56:00;16.80;99.90
8095;DHT22;4090;49.270;8.696;2022-09-16T07:58:44;16.80;99.90
8095;DHT22;4090;49.270;8.696;2022-09-16T08:01:27;16.80;99.90
8095;DHT22;4090;49.270;8.696;2022-09-16T08:04:10;16.80;99.90
8095;DHT22;4090;49.270;8.696;2022-09-16T08:06:53;16.80;99.90
8095;DHT22;4090;49.270;8.696;2022-09-16T08:09:36;16.80;99.90
8095;DHT22;4090;49.270;8.696;2022-09-16T08:12:18;16.80;99.90
8095;DHT22;4090;49.270;8.696;2022-09-16T08:15:00;16.80;99.90
8095;DHT22;4090;49.270;8.696;2022-09-16T08:17:42;16.80;99.90
8095;DHT22;4090;49.270;8.696;2022-09-16T08:20:24;16.80;99.90
8095;DHT22;4090;49.270;8.696;2022-09-16T08:23:06;16.80;99.90
8095;DHT22;4090;49.270;8.696;2022-09-16T08:25:56;16.90;99.90
8095;DHT22;4090;49.270;8.696;2022-09-16T08:28:40;16.90;99.90
8095;DHT22;4090;49.270;8.696;2022-09-16T08:31:22;16.90;99.90
8095;DHT22;4090;49.270;8.696;2022-09-16T08:34:04;16.90;99.90
8095;DHT22;4090;49.270;8.696;2022-09-16T08:36:46;16.90;99.90
8095;DHT22;4090;49.270;8.696;2022-09-16T08:39:28;16.90;99.90
8095;DHT22;4090;49.270;8.696;2022-09-16T08:42:35;16.90;99.90
8095;DHT22;4090;49.270;8.696;2022-09-16T08:45:23;16.90;99.90
8095;DHT22;4090;49.270;8.696;2022-09-16T08:48:24;16.90;99.90
8095;DHT22;4090;49.270;8.696;2022-09-16T08:51:13;16.90;99.90
8095;DHT22;4090;49.270;8.696;2022-09-16T08:53:57;16.90;99.90
8095;DHT22;4090;49.270;8.696;2022-09-16T08:56:42;16.90;99.90
8095;DHT22;4090;49.270;8.696;2022-09-16T08:59:34;16.90;99.90
8095;DHT22;4090;49.270;8.696;2022-09-16T09:02:33;16.90;99.90
8095;DHT22;4090;49.270;8.696;2022-09-16T09:05:23;16.90;99.90
8095;DHT22;4090;49.270;8.696;2022-09-16T09:08:16;16.90;99.90
8095;DHT22;4090;49.270;8.696;2022-09-16T09:11:05;16.90;99.90
8095;DHT22;4090;49.270;8.696;2022-09-16T09:14:00;16.90;99.90
8095;DHT22;4090;49.270;8.696;2022-09-16T09:16:49;17.00;99.90
8095;DHT22;4090;49.270;8.696;2022-09-16T09:19:42;17.00;99.90
8095;DHT22;4090;49.270;8.696;2022-09-16T09:22:42;17.00;99.90
8095;DHT22;4090;49.270;8.696;2022-09-16T09:25:31;17.00;99.90
8095;DHT22;4090;49.270;8.696;2022-09-16T09:28:36;17.00;99.90
8095;DHT22;4090;49.270;8.696;2022-09-16T09:31:26;17.00;99.90
8095;DHT22;4090;49.270;8.696;2022-09-16T09:34:23;16.90;99.90
8095;DHT22;4090;49.270;8.696;2022-09-16T09:37:28;17.00;99.90
8095;DHT22;4090;49.270;8.696;2022-09-16T09:40:14;17.00;99.90
8095;DHT22;4090;49.270;8.696;2022-09-16T09:43:04;16.90;99.90
8095;DHT22;4090;49.270;8.696;2022-09-16T09:45:55;16.90;99.90
8095;DHT22;4090;49.270;8.696;2022-09-16T09:48:42;17.00;99.90
8095;DHT22;4090;49.270;8.696;2022-09-16T09:51:30;17.00;99.90
8095;DHT22;4090;49.270;8.696;2022-09-16T09:54:22;17.00;99.90
8095;DHT22;4090;49.270;8.696;2022-09-16T09:57:13;17.00;99.90
8095;DHT22;4090;49.270;8.696;2022-09-16T10:00:00;17.00;99.90
8095;DHT22;4090;49.270;8.696;2022-09-16T10:03:01;17.10;99.90
8095;DHT22;4090;49.270;8.696;2022-09-16T10:05:45;17.10;99.90
8095;DHT22;4090;49.270;8.696;2022-09-16T10:08:33;17.10;99.90
8095;DHT22;4090;49.270;8.696;2022-09-16T10:11:18;17.10;99.90
8095;DHT22;4090;49.270;8.696;2022-09-16T10:14:01;17.10;99.90
8095;DHT22;4090;49.270;8.696;2022-09-16T10:16:48;17.10;99.90
8095;DHT22;4090;49.270;8.696;2022-09-16T10:19:34;17.20;99.90
8095;DHT22;4090;49.270;8.696;2022-09-16T10:22:22;17.30;99.90
8095;DHT22;4090;49.270;8.696;2022-09-16T10:25:21;17.40;99.90
8095;DHT22;4090;49.270;8.696;2022-09-16T10:28:05;17.40;99.90
8095;DHT22;4090;49.270;8.696;2022-09-16T10:30:49;17.40;99.90
8095;DHT22;4090;49.270;8.696;2022-09-16T10:33:34;17.40;99.90
8095;DHT22;4090;49.270;8.696;2022-09-16T10:36:18;17.40;99.90
8095;DHT22;4090;49.270;8.696;2022-09-16T10:39:01;17.40;99.90
8095;DHT22;4090;49.270;8.696;2022-09-16T10:41:45;17.40;99.90
8095;DHT22;4090;49.270;8.696;2022-09-16T10:44:28;17.50;99.90
8095;DHT22;4090;49.270;8.696;2022-09-16T10:47:17;17.50;99.90
8095;DHT22;4090;49.270;8.696;2022-09-16T10:50:02;17.50;99.90
8095;DHT22;4090;49.270;8.696;2022-09-16T10:52:46;17.50;99.90
8095;DHT22;4090;49.270;8.696;2022-09-16T10:55:30;17.60;99.90
8095;DHT22;4090;49.270;8.696;2022-09-16T10:58:17;17.50;99.90
8095;DHT22;4090;49.270;8.696;2022-09-16T11:01:12;17.50;99.90
8095;DHT22;4090;49.270;8.696;2022-09-16T11:04:11;17.50;99.90
8095;DHT22;4090;49.270;8.696;2022-09-16T11:07:06;17.50;99.90
8095;DHT22;4090;49.270;8.696;2022-09-16T11:09:55;17.50;99.90
8095;DHT22;4090;49.270;8.696;2022-09-16T11:12:59;17.60;99.90
8095;DHT22;4090;49.270;8.696;2022-09-16T11:15:54;17.70;99.90
8095;DHT22;4090;49.270;8.696;2022-09-16T11:18:46;17.70;99.90
8095;DHT22;4090;49.270;8.696;2022-09-16T11:21:41;17.80;99.90
8095;DHT22;4090;49.270;8.696;2022-09-16T11:24:44;17.90;99.90
8095;DHT22;4090;49.270;8.696;2022-09-16T11:27:38;18.00;99.90
8095;DHT22;4090;49.270;8.696;2022-09-16T11:30:22;18.10;99.90
8095;DHT22;4090;49.270;8.696;2022-09-16T11:33:21;18.10;99.90
8095;DHT22;4090;49.270;8.696;2022-09-16T11:36:36;18.30;99.90
8095;DHT22;4090;49.270;8.696;2022-09-16T11:39:30;18.40;99.90
8095;DHT22;4090;49.270;8.696;2022-09-16T11:42:20;18.50;99.90
8095;DHT22;4090;49.270;8.696;2022-09-16T11:45:19;18.50;99.90
8095;DHT22;4090;49.270;8.696;2022-09-16T11:48:31;18.60;99.90
8095;DHT22;4090;49.270;8.696;2022-09-16T11:51:25;18.70;99.90
8095;DHT22;4090;49.270;8.696;2022-09-16T11:54:26;18.80;99.30
8095;DHT22;4090;49.270;8.696;2022-09-16T11:57:16;18.90;99.90
8095;DHT22;4090;49.270;8.696;2022-09-16T12:00:01;18.90;99.90
8095;DHT22;4090;49.270;8.696;2022-09-16T12:02:57;19.00;99.90
8095;DHT22;4090;49.270;8.696;2022-09-16T12:05:43;19.20;99.80
8095;DHT22;4090;49.270;8.696;2022-09-16T12:08:32;19.30;99.90
8095;DHT22;4090;49.270;8.696;2022-09-16T12:11:25;19.30;98.10
8095;DHT22;4090;49.270;8.696;2022-09-16T12:14:14;19.40;96.80
8095;DHT22;4090;49.270;8.696;2022-09-16T12:16:59;19.50;96.90
8095;DHT22;4090;49.270;8.696;2022-09-16T12:19:46;19.60;97.40
8095;DHT22;4090;49.270;8.696;2022-09-16T12:22:34;19.80;97.50
8095;DHT22;4090;49.270;8.696;2022-09-16T12:25:19;20.00;98.20
8095;DHT22;4090;49.270;8.696;2022-09-16T12:28:06;20.20;97.90
8095;DHT22;4090;49.270;8.696;2022-09-16T12:30:58;20.30;97.80
8095;DHT22;4090;49.270;8.696;2022-09-16T12:33:45;20.40;97.90
8095;DHT22;4090;49.270;8.696;2022-09-16T12:36:30;20.50;99.00
8095;DHT22;4090;49.270;8.696;2022-09-16T12:39:15;20.50;98.80
8095;DHT22;4090;49.270;8.696;2022-09-16T12:45:36;20.60;96.40
8095;DHT22;4090;49.270;8.696;2022-09-16T12:48:45;20.60;96.00
8095;DHT22;4090;49.270;8.696;2022-09-16T12:51:49;20.40;96.20
8095;DHT22;4090;49.270;8.696;2022-09-16T12:54:50;20.30;96.80
8095;DHT22;4090;49.270;8.696;2022-09-16T12:57:47;20.20;96.70
8095;DHT22;4090;49.270;8.696;2022-09-16T13:00:36;20.10;99.30
8095;DHT22;4090;49.270;8.696;2022-09-16T13:03:21;20.20;99.90
8095;DHT22;4090;49.270;8.696;2022-09-16T13:06:06;20.20;99.90
8095;DHT22;4090;49.270;8.696;2022-09-16T13:08:55;20.20;99.90
8095;DHT22;4090;49.270;8.696;2022-09-16T13:11:39;20.20;99.90
8095;DHT22;4090;49.270;8.696;2022-09-16T13:14:22;20.30;99.90
8095;DHT22;4090;49.270;8.696;2022-09-16T13:17:08;20.30;99.90
8095;DHT22;4090;49.270;8.696;2022-09-16T13:19:51;20.20;99.90
8095;DHT22;4090;49.270;8.696;2022-09-16T13:22:37;20.20;99.90
8095;DHT22;4090;49.270;8.696;2022-09-16T13:25:28;20.20;99.90
8095;DHT22;4090;49.270;8.696;2022-09-16T13:28:25;20.30;99.90
8095;DHT22;4090;49.270;8.696;2022-09-16T13:31:15;20.20;99.90
8095;DHT22;4090;49.270;8.696;2022-09-16T13:34:13;20.10;99.90
8095;DHT22;4090;49.270;8.696;2022-09-16T13:36:55;20.10;99.90
8095;DHT22;4090;49.270;8.696;2022-09-16T13:39:38;20.10;99.90
8095;DHT22;4090;49.270;8.696;2022-09-16T13:42:20;20.00;99.90
8095;DHT22;4090;49.270;8.696;2022-09-16T13:45:29;20.00;98.70
8095;DHT22;4090;49.270;8.696;2022-09-16T13:48:12;20.00;99.60
8095;DHT22;4090;49.270;8.696;2022-09-16T13:50:57;20.00;99.90
8095;DHT22;4090;49.270;8.696;2022-09-16T13:53:44;20.10;99.50
8095;DHT22;4090;49.270;8.696;2022-09-16T13:56:43;20.20;98.50
8095;DHT22;4090;49.270;8.696;2022-09-16T13:59:39;20.30;97.70
8095;DHT22;4090;49.270;8.696;2022-09-16T14:02:34;20.30;98.40
8095;DHT22;4090;49.270;8.696;2022-09-16T14:05:38;20.30;98.90
8095;DHT22;4090;49.270;8.696;2022-09-16T14:08:28;20.30;99.10
8095;DHT22;4090;49.270;8.696;2022-09-16T14:11:18;20.40;98.70
8095;DHT22;4090;49.270;8.696;2022-09-16T14:14:07;20.40;98.90
8095;DHT22;4090;49.270;8.696;2022-09-16T14:16:50;20.30;97.70
8095;DHT22;4090;49.270;8.696;2022-09-16T14:19:37;20.30;98.20
8095;DHT22;4090;49.270;8.696;2022-09-16T14:22:20;20.20;96.50
8095;DHT22;4090;49.270;8.696;2022-09-16T14:25:03;20.10;97.40
8095;DHT22;4090;49.270;8.696;2022-09-16T14:28:15;20.00;97.50
8095;DHT22;4090;49.270;8.696;2022-09-16T14:30:59;19.90;97.00
8095;DHT22;4090;49.270;8.696;2022-09-16T14:33:44;19.90;96.50
8095;DHT22;4090;49.270;8.696;2022-09-16T14:36:30;19.90;97.50
8095;DHT22;4090;49.270;8.696;2022-09-16T14:39:15;19.90;97.50
8095;DHT22;4090;49.270;8.696;2022-09-16T14:42:00;19.90;98.70
8095;DHT22;4090;49.270;8.696;2022-09-16T14:44:46;20.00;99.90
8095;DHT22;4090;49.270;8.696;2022-09-16T14:47:31;20.00;99.90
8095;DHT22;4090;49.270;8.696;2022-09-16T14:50:17;20.00;99.90
8095;DHT22;4090;49.270;8.696;2022-09-16T14:53:03;19.90;99.90
8095;DHT22;4090;49.270;8.696;2022-09-16T14:55:48;19.90;99.80
8095;DHT22;4090;49.270;8.696;2022-09-16T14:58:31;19.80;99.20
8095;DHT22;4090;49.270;8.696;2022-09-16T15:01:18;19.80;99.30
8095;DHT22;4090;49.270;8.696;2022-09-16T15:04:06;19.80;99.20
8095;DHT22;4090;49.270;8.696;2022-09-16T15:06:52;19.80;99.90
8095;DHT22;4090;49.270;8.696;2022-09-16T15:09:43;19.90;99.90
8095;DHT22;4090;49.270;8.696;2022-09-16T15:12:28;19.90;99.90
8095;DHT22;4090;49.270;8.696;2022-09-16T15:15:17;19.90;99.90
8095;DHT22;4090;49.270;8.696;2022-09-16T15:18:03;19.90;99.90
8095;DHT22;4090;49.270;8.696;2022-09-16T15:20:50;19.90;99.90
8095;DHT22;4090;49.270;8.696;2022-09-16T15:23:33;19.90;99.90
8095;DHT22;4090;49.270;8.696;2022-09-16T15:26:19;19.90;99.90
8095;DHT22;4090;49.270;8.696;2022-09-16T15:29:04;19.90;99.90
8095;DHT22;4090;49.270;8.696;2022-09-16T15:31:47;19.90;99.90
8095;DHT22;4090;49.270;8.696;2022-09-16T15:34:30;19.90;99.90
8095;DHT22;4090;49.270;8.696;2022-09-16T15:37:29;19.80;99.90
8095;DHT22;4090;49.270;8.696;2022-09-16T15:40:30;19.80;99.90
8095;DHT22;4090;49.270;8.696;2022-09-16T15:43:16;19.80;99.90
8095;DHT22;4090;49.270;8.696;2022-09-16T15:46:00;19.70;99.90
8095;DHT22;4090;49.270;8.696;2022-09-16T15:48:44;19.60;99.90
8095;DHT22;4090;49.270;8.696;2022-09-16T15:51:30;19.60;99.90
8095;DHT22;4090;49.270;8.696;2022-09-16T15:54:17;19.50;99.90
8095;DHT22;4090;49.270;8.696;2022-09-16T15:57:02;19.50;99.90
8095;DHT22;4090;49.270;8.696;2022-09-16T15:59:59;19.40;99.90
8095;DHT22;4090;49.270;8.696;2022-09-16T16:02:56;19.40;99.90
8095;DHT22;4090;49.270;8.696;2022-09-16T16:05:49;19.40;99.90
8095;DHT22;4090;49.270;8.696;2022-09-16T16:08:41;19.30;99.90
8095;DHT22;4090;49.270;8.696;2022-09-16T16:11:23;19.10;99.90
8095;DHT22;4090;49.270;8.696;2022-09-16T16:14:05;19.00;99.90
8095;DHT22;4090;49.270;8.696;2022-09-16T16:16:50;19.00;99.90
8095;DHT22;4090;49.270;8.696;2022-09-16T16:19:32;18.90;99.90
8095;DHT22;4090;49.270;8.696;2022-09-16T16:22:15;18.80;99.90
8095;DHT22;4090;49.270;8.696;2022-09-16T16:24:57;18.70;99.90
8095;DHT22;4090;49.270;8.696;2022-09-16T16:27:40;18.70;99.90
8095;DHT22;4090;49.270;8.696;2022-09-16T16:30:22;18.60;99.90
8095;DHT22;4090;49.270;8.696;2022-09-16T16:33:07;18.50;99.90
8095;DHT22;4090;49.270;8.696;2022-09-16T16:35:49;18.40;99.90
8095;DHT22;4090;49.270;8.696;2022-09-16T16:38:30;18.30;99.90
8095;DHT22;4090;49.270;8.696;2022-09-16T16:41:18;18.20;99.90
8095;DHT22;4090;49.270;8.696;2022-09-16T16:44:00;18.10;99.90
8095;DHT22;4090;49.270;8.696;2022-09-16T16:46:42;18.10;99.90
8095;DHT22;4090;49.270;8.696;2022-09-16T16:49:25;18.00;99.90
8095;DHT22;4090;49.270;8.696;2022-09-16T16:52:07;17.90;99.90
8095;DHT22;4090;49.270;8.696;2022-09-16T16:54:50;17.80;99.90
8095;DHT22;4090;49.270;8.696;2022-09-16T16:57:32;17.80;99.90
8095;DHT22;4090;49.270;8.696;2022-09-16T17:00:14;17.70;99.90
8095;DHT22;4090;49.270;8.696;2022-09-16T17:02:57;17.70;99.90
8095;DHT22;4090;49.270;8.696;2022-09-16T17:05:40;17.70;99.90
8095;DHT22;4090;49.270;8.696;2022-09-16T17:08:22;17.70;99.90
8095;DHT22;4090;49.270;8.696;2022-09-16T17:11:06;17.60;99.90
8095;DHT22;4090;49.270;8.696;2022-09-16T17:13:49;17.70;99.90
8095;DHT22;4090;49.270;8.696;2022-09-16T17:16:32;17.60;99.90
8095;DHT22;4090;49.270;8.696;2022-09-16T17:19:15;17.60;99.90
8095;DHT22;4090;49.270;8.696;2022-09-16T17:21:59;17.60;99.90
8095;DHT22;4090;49.270;8.696;2022-09-16T17:24:41;17.60;99.90
8095;DHT22;4090;49.270;8.696;2022-09-16T17:27:22;17.60;99.90
8095;DHT22;4090;49.270;8.696;2022-09-16T17:30:07;17.50;99.90
8095;DHT22;4090;49.270;8.696;2022-09-16T17:32:49;17.50;99.90
8095;DHT22;4090;49.270;8.696;2022-09-16T17:35:31;17.50;99.90
8095;DHT22;4090;49.270;8.696;2022-09-16T17:38:14;17.50;99.90
8095;DHT22;4090;49.270;8.696;2022-09-16T17:41:00;17.40;99.90
8095;DHT22;4090;49.270;8.696;2022-09-16T17:43:43;17.40;99.90
8095;DHT22;4090;49.270;8.696;2022-09-16T17:46:25;17.40;99.90
8095;DHT22;4090;49.270;8.696;2022-09-16T17:49:12;17.40;99.90
8095;DHT22;4090;49.270;8.696;2022-09-16T17:51:55;17.40;99.90
8095;DHT22;4090;49.270;8.696;2022-09-16T17:54:39;17.30;99.90
8095;DHT22;4090;49.270;8.696;2022-09-16T17:57:21;17.30;99.90
8095;DHT22;4090;49.270;8.696;2022-09-16T18:00:06;17.30;99.90
8095;DHT22;4090;49.270;8.696;2022-09-16T18:02:52;17.30;99.90
8095;DHT22;4090;49.270;8.696;2022-09-16T18:05:35;17.30;99.90
8095;DHT22;4090;49.270;8.696;2022-09-16T18:08:17;17.30;99.90
8095;DHT22;4090;49.270;8.696;2022-09-16T18:11:00;17.30;99.90
8095;DHT22;4090;49.270;8.696;2022-09-16T18:13:43;17.30;99.90